Monte Tamaro — DFKP2 — position and weather

sailwx.info

Track history (hours):
 
Tides and Currents Weather Stations Pressure Air Temp Water Temp Dewpoint Dewpoint Depression Visibility Wind Speed Wind Dir Waves Ship Positions

Monte Tamaro

Last reported at 2015-Jul-05 18:00 UTC. Time now 2015-Jul-07 02:34 UTC.
Position N 19°00' W 062°54'.

Length 272.1 m; beam 40.1 m; draft 13.2 m.

Type: Ship (hazmat cat B). MMSI: 218132000.

Wind from 050 at 26 knots

Waves 2.0 meters (7 feet), 6 second period

Barometer 1019.1 mb
Air temperature 32.9 ° C
Visibility: greater than 10.8 NM
Dewpoint 24.1 ° C
Water temperature 28.0 ° C

Date/timePositionNaut miles runAvg speedWind from/ knotsBaromVisibWave heightAir tempDewpointWater temp
2015-Jul-05 18:00N 19°00' W 062°54'22018.3 050 / 261019.110.8 2.032.924.128.0
2015-Jul-05 06:00N 20°48' W 066°18'21818.2 070 / 221019.210.8 2.527.522.428.0
2015-Jul-04 18:00N 22°36' W 069°42'55718.7 110 / 171019.610.8 2.031.922.029.0
2015-Jul-03 12:11N 26°12' W 079°06'1219.1
2015-Jul-03 11:33N 26°09' W 079°19'1818.1
2015-Jul-03 10:33N 26°08' W 079°39'1616.0
2015-Jul-03 09:34N 26°06' W 079°57'9 8.9
2015-Jul-03 08:33N 26°05' W 080°07'0 0.4
2015-Jul-03 07:32N 26°04' W 080°07'0 0.0
2015-Jul-03 06:32N 26°04' W 080°07'0 0.0
2015-Jul-03 05:32N 26°04' W 080°07'0 0.0
2015-Jul-03 04:32N 26°04' W 080°07'0 0.0
2015-Jul-03 03:32N 26°04' W 080°07'0 0.0
2015-Jul-03 02:32N 26°04' W 080°07'0 0.0
2015-Jul-03 01:23N 26°04' W 080°07'0 0.0
2015-Jul-03 00:26N 26°04' W 080°07'0 0.0
2015-Jul-02 23:26N 26°04' W 080°07'0 0.0
2015-Jul-02 22:26N 26°04' W 080°07'0 0.0
2015-Jul-02 21:29N 26°04' W 080°07'0 0.0
2015-Jul-02 20:29N 26°04' W 080°07'0 0.0
2015-Jul-02 19:29N 26°04' W 080°07'0 0.0
2015-Jul-02 18:32N 26°04' W 080°07'0 0.0
2015-Jul-02 17:32N 26°04' W 080°07'0 0.0
2015-Jul-02 16:32N 26°04' W 080°07'0 0.0
2015-Jul-02 15:32N 26°04' W 080°07'0 0.0
2015-Jul-02 14:20N 26°04' W 080°07'0 0.0
2015-Jul-02 13:32N 26°04' W 080°07'0 0.0
2015-Jul-02 12:32N 26°04' W 080°07'0 0.0
2015-Jul-02 11:23N 26°04' W 080°07'0 0.0
2015-Jul-02 10:23N 26°04' W 080°07'1 1.4
2015-Jul-02 09:33N 26°06' W 080°07'5 5.4
2015-Jul-02 08:33N 26°08' W 080°02'1716.8
2015-Jul-02 07:33N 26°25' W 079°58'1717.0
2015-Jul-02 06:33N 26°42' W 079°57'1717.5
2015-Jul-02 05:33N 26°59' W 079°56'263 5.9
2015-Jun-30 08:33N 31°22' W 080°13'1511.9
2015-Jun-30 07:16N 31°36' W 080°05'811.8
2015-Jun-30 06:33N 31°43' W 080°00'1211.7
2015-Jun-30 05:33N 31°54' W 079°54'1111.5
2015-Jun-30 04:33N 32°04' W 079°49'1211.6
2015-Jun-30 03:33N 32°15' W 079°44'35 2.5
2015-Jun-29 13:19N 32°50' W 079°54'0 0.0
2015-Jun-29 12:13N 32°50' W 079°54'0 0.0
2015-Jun-29 11:25N 32°50' W 079°54'0 0.0
2015-Jun-29 10:31N 32°50' W 079°54'0 0.0
2015-Jun-29 09:33N 32°50' W 079°54'408 8.3
2015-Jun-27 08:20N 38°09' W 074°41'2220.4
2015-Jun-27 07:16N 38°30' W 074°47'1419.5
2015-Jun-27 06:33N 38°42' W 074°57'1413.8
2015-Jun-27 05:34N 38°54' W 075°05'1615.6
2015-Jun-27 04:33N 39°08' W 075°14'1715.4
2015-Jun-27 03:25N 39°22' W 075°27'1112.9
2015-Jun-27 02:33N 39°32' W 075°33'9 9.0
2015-Jun-27 01:34N 39°41' W 075°31'9 8.7
2015-Jun-27 00:33N 39°48' W 075°25'7 7.1
2015-Jun-26 23:33N 39°51' W 075°16'7 6.6
2015-Jun-26 22:33N 39°54' W 075°08'0 0.3
2015-Jun-26 21:29N 39°54' W 075°08'0 0.0
2015-Jun-26 20:32N 39°54' W 075°08'0 0.0
2015-Jun-26 19:32N 39°54' W 075°08'0 0.0
2015-Jun-26 18:32N 39°54' W 075°08'0 0.0
2015-Jun-26 17:29N 39°54' W 075°08'0 0.0
2015-Jun-26 16:32N 39°54' W 075°08'0 0.0
2015-Jun-26 15:32N 39°54' W 075°08'0 0.0
2015-Jun-26 14:32N 39°54' W 075°08'0 0.0
2015-Jun-26 13:32N 39°54' W 075°08'0 0.0
2015-Jun-26 12:32N 39°54' W 075°08'0 0.0
2015-Jun-26 11:32N 39°54' W 075°08'0 0.0
2015-Jun-26 10:32N 39°54' W 075°08'0 0.0
2015-Jun-26 09:32N 39°54' W 075°08'0 0.0
2015-Jun-26 08:32N 39°54' W 075°08'0 0.0
2015-Jun-26 07:32N 39°54' W 075°08'0 0.0
2015-Jun-26 06:32N 39°54' W 075°08'0 0.0
2015-Jun-26 05:32N 39°54' W 075°08'0 0.0
2015-Jun-26 04:32N 39°54' W 075°08'0 0.0
2015-Jun-26 03:33N 39°54' W 075°08'5 4.6
2015-Jun-26 02:33N 39°52' W 075°13'6 5.8
2015-Jun-26 01:33N 39°51' W 075°21'5 5.2
2015-Jun-26 00:33N 39°48' W 075°26'4 4.2
2015-Jun-25 23:33N 39°44' W 075°30'9 8.8
2015-Jun-25 22:33N 39°36' W 075°34'1312.9
2015-Jun-25 21:34N 39°24' W 075°30'1716.9
2015-Jun-25 20:34N 39°11' W 075°16'1716.7
2015-Jun-25 19:34N 38°56' W 075°06'1312.9
2015-Jun-25 18:33N 38°45' W 074°57'  
Track history (hours):
 
Tides and Currents Weather Stations Pressure Air Temp Water Temp Dewpoint Dewpoint Depression Visibility Wind Speed Wind Dir Waves Ship Positions

Monte Tamaro

Last reported at 2015-Jul-05 18:00 UTC. Time now 2015-Jul-07 02:34 UTC.
Position N 19°00' W 062°54'.

Length 272.1 m; beam 40.1 m; draft 13.2 m.

Type: Ship (hazmat cat B). MMSI: 218132000.

Wind from 050 at 26 knots

Waves 2.0 meters (7 feet), 6 second period

Barometer 1019.1 mb
Air temperature 32.9 ° C
Visibility: greater than 10.8 NM
Dewpoint 24.1 ° C
Water temperature 28.0 ° C

Date/timePositionNaut miles runAvg speedWind from/ knotsBaromVisibWave heightAir tempDewpointWater temp
2015-Jul-05 18:00N 19°00' W 062°54'22018.3 050 / 261019.110.8 2.032.924.128.0
2015-Jul-05 06:00N 20°48' W 066°18'21818.2 070 / 221019.210.8 2.527.522.428.0
2015-Jul-04 18:00N 22°36' W 069°42'55718.7 110 / 171019.610.8 2.031.922.029.0
2015-Jul-03 12:11N 26°12' W 079°06'1219.1
2015-Jul-03 11:33N 26°09' W 079°19'1818.1
2015-Jul-03 10:33N 26°08' W 079°39'1616.0
2015-Jul-03 09:34N 26°06' W 079°57'9 8.9
2015-Jul-03 08:33N 26°05' W 080°07'0 0.4
2015-Jul-03 07:32N 26°04' W 080°07'0 0.0
2015-Jul-03 06:32N 26°04' W 080°07'0 0.0
2015-Jul-03 05:32N 26°04' W 080°07'0 0.0
2015-Jul-03 04:32N 26°04' W 080°07'0 0.0
2015-Jul-03 03:32N 26°04' W 080°07'0 0.0
2015-Jul-03 02:32N 26°04' W 080°07'0 0.0
2015-Jul-03 01:23N 26°04' W 080°07'0 0.0
2015-Jul-03 00:26N 26°04' W 080°07'0 0.0
2015-Jul-02 23:26N 26°04' W 080°07'0 0.0
2015-Jul-02 22:26N 26°04' W 080°07'0 0.0
2015-Jul-02 21:29N 26°04' W 080°07'0 0.0
2015-Jul-02 20:29N 26°04' W 080°07'0 0.0
2015-Jul-02 19:29N 26°04' W 080°07'0 0.0
2015-Jul-02 18:32N 26°04' W 080°07'0 0.0
2015-Jul-02 17:32N 26°04' W 080°07'0 0.0
2015-Jul-02 16:32N 26°04' W 080°07'0 0.0
2015-Jul-02 15:32N 26°04' W 080°07'0 0.0
2015-Jul-02 14:20N 26°04' W 080°07'0 0.0
2015-Jul-02 13:32N 26°04' W 080°07'0 0.0
2015-Jul-02 12:32N 26°04' W 080°07'0 0.0
2015-Jul-02 11:23N 26°04' W 080°07'0 0.0
2015-Jul-02 10:23N 26°04' W 080°07'1 1.4
2015-Jul-02 09:33N 26°06' W 080°07'5 5.4
2015-Jul-02 08:33N 26°08' W 080°02'1716.8
2015-Jul-02 07:33N 26°25' W 079°58'1717.0
2015-Jul-02 06:33N 26°42' W 079°57'1717.5
2015-Jul-02 05:33N 26°59' W 079°56'263 5.9
2015-Jun-30 08:33N 31°22' W 080°13'1511.9
2015-Jun-30 07:16N 31°36' W 080°05'811.8
2015-Jun-30 06:33N 31°43' W 080°00'1211.7
2015-Jun-30 05:33N 31°54' W 079°54'1111.5
2015-Jun-30 04:33N 32°04' W 079°49'1211.6
2015-Jun-30 03:33N 32°15' W 079°44'35 2.5
2015-Jun-29 13:19N 32°50' W 079°54'0 0.0
2015-Jun-29 12:13N 32°50' W 079°54'0 0.0
2015-Jun-29 11:25N 32°50' W 079°54'0 0.0
2015-Jun-29 10:31N 32°50' W 079°54'0 0.0
2015-Jun-29 09:33N 32°50' W 079°54'408 8.3
2015-Jun-27 08:20N 38°09' W 074°41'2220.4
2015-Jun-27 07:16N 38°30' W 074°47'1419.5
2015-Jun-27 06:33N 38°42' W 074°57'1413.8
2015-Jun-27 05:34N 38°54' W 075°05'1615.6
2015-Jun-27 04:33N 39°08' W 075°14'1715.4
2015-Jun-27 03:25N 39°22' W 075°27'1112.9
2015-Jun-27 02:33N 39°32' W 075°33'9 9.0
2015-Jun-27 01:34N 39°41' W 075°31'9 8.7
2015-Jun-27 00:33N 39°48' W 075°25'7 7.1
2015-Jun-26 23:33N 39°51' W 075°16'7 6.6
2015-Jun-26 22:33N 39°54' W 075°08'0 0.3
2015-Jun-26 21:29N 39°54' W 075°08'0 0.0
2015-Jun-26 20:32N 39°54' W 075°08'0 0.0
2015-Jun-26 19:32N 39°54' W 075°08'0 0.0
2015-Jun-26 18:32N 39°54' W 075°08'0 0.0
2015-Jun-26 17:29N 39°54' W 075°08'0 0.0
2015-Jun-26 16:32N 39°54' W 075°08'0 0.0
2015-Jun-26 15:32N 39°54' W 075°08'0 0.0
2015-Jun-26 14:32N 39°54' W 075°08'0 0.0
2015-Jun-26 13:32N 39°54' W 075°08'0 0.0
2015-Jun-26 12:32N 39°54' W 075°08'0 0.0
2015-Jun-26 11:32N 39°54' W 075°08'0 0.0
2015-Jun-26 10:32N 39°54' W 075°08'0 0.0
2015-Jun-26 09:32N 39°54' W 075°08'0 0.0
2015-Jun-26 08:32N 39°54' W 075°08'0 0.0
2015-Jun-26 07:32N 39°54' W 075°08'0 0.0
2015-Jun-26 06:32N 39°54' W 075°08'0 0.0
2015-Jun-26 05:32N 39°54' W 075°08'0 0.0
2015-Jun-26 04:32N 39°54' W 075°08'0 0.0
2015-Jun-26 03:33N 39°54' W 075°08'5 4.6
2015-Jun-26 02:33N 39°52' W 075°13'6 5.8
2015-Jun-26 01:33N 39°51' W 075°21'5 5.2
2015-Jun-26 00:33N 39°48' W 075°26'4 4.2
2015-Jun-25 23:33N 39°44' W 075°30'9 8.8
2015-Jun-25 22:33N 39°36' W 075°34'1312.9
2015-Jun-25 21:34N 39°24' W 075°30'1716.9
2015-Jun-25 20:34N 39°11' W 075°16'1716.7
2015-Jun-25 19:34N 38°56' W 075°06'1312.9
2015-Jun-25 18:33N 38°45' W 074°57'  

Dump ship's entire track history